createdAt,value
2019-02-19T00:01:05.190Z,6.08
2019-02-19T00:03:34.791Z,6.62
2019-02-19T00:06:04.630Z,7.90
2019-02-19T00:08:34.510Z,8.13
2019-02-19T00:11:04.100Z,6.65
2019-02-19T00:13:34.430Z,7.15
2019-02-19T00:16:04.007Z,7.15
2019-02-19T00:18:33.620Z,7.60
2019-02-19T00:21:03.192Z,7.08
2019-02-19T00:23:33.023Z,7.80
2019-02-19T00:26:02.861Z,7.50
2019-02-19T00:28:32.617Z,7.97
2019-02-19T00:31:02.221Z,7.33
2019-02-19T00:33:32.031Z,7.05
2019-02-19T00:36:01.852Z,8.00
2019-02-19T00:38:31.478Z,5.97
2019-02-19T00:41:01.041Z,6.55
2019-02-19T00:43:33.808Z,6.92
2019-02-19T00:46:03.378Z,8.35
2019-02-19T00:48:33.217Z,6.42
2019-02-19T00:51:03.074Z,6.58
2019-02-19T00:53:32.633Z,7.03
2019-02-19T00:56:02.790Z,6.53
2019-02-19T00:58:32.335Z,7.70
2019-02-19T01:01:02.211Z,7.10
2019-02-19T01:03:31.795Z,7.30
2019-02-19T01:06:01.639Z,6.58
2019-02-19T01:08:31.498Z,7.72
2019-02-19T01:11:01.090Z,6.75
2019-02-19T01:13:30.983Z,6.42
2019-02-19T01:16:00.657Z,6.87
2019-02-19T01:18:30.243Z,5.70
2019-02-19T01:20:59.788Z,6.40
2019-02-19T01:23:29.673Z,6.83
2019-02-19T01:25:59.720Z,7.42
2019-02-19T01:28:29.512Z,6.58
2019-02-19T01:30:59.154Z,7.60
2019-02-19T01:33:28.722Z,6.55
2019-02-19T01:35:58.366Z,7.00
2019-02-19T01:38:27.947Z,6.62
2019-02-19T01:40:57.535Z,7.97
2019-02-19T01:43:27.366Z,7.33
2019-02-19T01:45:57.206Z,8.38
2019-02-19T01:48:26.788Z,10.23
2019-02-19T01:50:56.612Z,7.62
2019-02-19T01:53:26.757Z,7.00
2019-02-19T01:55:56.366Z,6.75
2019-02-19T01:58:26.247Z,7.40
2019-02-19T02:00:55.811Z,7.35
2019-02-19T02:03:25.438Z,7.05
2019-02-19T02:05:54.953Z,6.60
2019-02-19T02:08:25.124Z,7.15
2019-02-19T02:10:55.211Z,7.37
2019-02-19T02:13:24.997Z,6.45
2019-02-19T02:15:54.621Z,7.65
2019-02-19T02:18:24.200Z,7.10
2019-02-19T02:20:53.799Z,7.42
2019-02-19T02:23:23.366Z,7.22
2019-02-19T02:25:53.157Z,7.45
2019-02-19T02:28:22.695Z,7.28
2019-02-19T02:30:52.560Z,6.75
2019-02-19T02:33:22.436Z,7.03
2019-02-19T02:35:52.260Z,7.05
2019-02-19T02:38:22.404Z,6.90
2019-02-19T02:40:52.495Z,6.80
2019-02-19T02:43:22.192Z,6.50
2019-02-19T02:45:53.711Z,7.87
2019-02-19T02:48:26.263Z,6.87
2019-02-19T02:50:56.093Z,6.35
2019-02-19T02:53:25.698Z,6.85
2019-02-19T02:55:55.251Z,6.60
2019-02-19T02:58:25.090Z,6.00
2019-02-19T03:00:55.247Z,7.35
2019-02-19T03:03:24.818Z,7.78
2019-02-19T03:06:26.350Z,8.13
2019-02-19T03:08:55.901Z,7.55
2019-02-19T03:11:25.472Z,7.22
2019-02-19T03:13:55.346Z,8.43
2019-02-19T03:16:24.898Z,8.43
2019-02-19T03:18:54.763Z,8.08
2019-02-19T03:21:24.371Z,8.13
2019-02-19T03:23:54.228Z,7.80
2019-02-19T03:26:23.826Z,7.78
2019-02-19T03:28:53.676Z,7.60
2019-02-19T03:31:23.369Z,7.70
2019-02-19T03:33:52.963Z,6.97
2019-02-19T03:36:22.907Z,6.95
2019-02-19T03:38:52.512Z,7.40
2019-02-19T03:41:22.118Z,7.87
2019-02-19T03:43:51.976Z,8.20
2019-02-19T03:46:22.084Z,7.85
2019-02-19T03:48:52.155Z,9.43
2019-02-19T03:51:21.741Z,8.90
2019-02-19T03:53:51.583Z,10.58
2019-02-19T03:56:21.200Z,10.00
2019-02-19T03:58:51.087Z,10.43
2019-02-19T04:01:21.232Z,10.75
2019-02-19T04:03:51.050Z,11.03
2019-02-19T04:06:20.628Z,10.95
2019-02-19T04:08:50.528Z,11.55
2019-02-19T04:11:20.371Z,12.10
2019-02-19T04:13:50.213Z,13.25
2019-02-19T04:16:21.496Z,12.75
2019-02-19T04:18:51.250Z,15.70
2019-02-19T04:21:20.821Z,15.45
2019-02-19T04:23:50.663Z,18.92
2019-02-19T04:26:20.559Z,18.02
2019-02-19T04:28:50.088Z,17.52
2019-02-19T04:31:19.877Z,17.05
2019-02-19T04:33:49.736Z,17.15
2019-02-19T04:36:19.314Z,16.40
2019-02-19T04:38:49.176Z,18.52
2019-02-19T04:41:18.822Z,19.50
2019-02-19T04:43:48.344Z,20.10
2019-02-19T04:46:18.022Z,20.43
2019-02-19T04:48:47.624Z,21.68
2019-02-19T04:51:17.448Z,21.15
2019-02-19T04:53:47.067Z,21.75
2019-02-19T04:56:16.704Z,21.33
2019-02-19T04:58:46.587Z,22.73
2019-02-19T05:01:16.186Z,23.65
2019-02-19T05:03:46.339Z,24.32
2019-02-19T05:06:15.915Z,25.65
2019-02-19T05:08:45.759Z,24.80
2019-02-19T05:11:15.608Z,26.42
2019-02-19T05:13:45.453Z,23.60
2019-02-19T05:16:15.058Z,22.73
2019-02-19T05:18:44.666Z,21.10
2019-02-19T05:21:14.293Z,22.93
2019-02-19T05:23:43.886Z,22.22
2019-02-19T05:26:13.774Z,22.13
2019-02-19T05:28:43.589Z,21.97
2019-02-19T05:31:13.224Z,20.95
2019-02-19T05:33:42.773Z,22.85
2019-02-19T05:36:12.905Z,20.55
2019-02-19T05:38:42.477Z,19.27
2019-02-19T05:41:12.081Z,20.60
2019-02-19T05:43:41.911Z,20.60
2019-02-19T05:46:11.777Z,22.60
2019-02-19T05:48:41.346Z,22.70
2019-02-19T05:51:11.225Z,20.55
2019-02-19T05:53:41.088Z,23.18
2019-02-19T05:56:10.631Z,24.30
2019-02-19T05:58:40.523Z,23.32
2019-02-19T06:01:11.100Z,24.30
2019-02-19T06:03:40.916Z,23.47
2019-02-19T06:06:10.523Z,23.30
2019-02-19T06:08:42.608Z,22.60
2019-02-19T06:11:12.547Z,27.58
2019-02-19T06:13:42.388Z,24.77
2019-02-19T06:16:11.945Z,24.35
2019-02-19T06:18:41.832Z,23.85
2019-02-19T06:21:11.467Z,24.70
2019-02-19T06:23:41.088Z,24.90
2019-02-19T06:26:10.927Z,23.32
2019-02-19T06:28:40.727Z,23.12
2019-02-19T06:31:10.273Z,25.08
2019-02-19T06:33:40.053Z,23.57
2019-02-19T06:36:09.595Z,22.55
2019-02-19T06:38:39.529Z,25.62
2019-02-19T06:41:09.193Z,24.35
2019-02-19T06:43:38.905Z,24.80
2019-02-19T06:46:08.472Z,21.85
2019-02-19T06:48:41.190Z,24.15
2019-02-19T06:51:11.020Z,26.40
2019-02-19T06:53:41.003Z,25.92
2019-02-19T06:56:10.621Z,25.37
2019-02-19T06:58:40.486Z,24.67
2019-02-19T07:01:10.032Z,27.02
2019-02-19T07:03:43.687Z,24.77
2019-02-19T07:06:13.294Z,27.60
2019-02-19T07:08:43.208Z,26.90
2019-02-19T07:11:12.774Z,26.42
2019-02-19T07:13:42.542Z,26.60
2019-02-19T07:16:12.395Z,27.10
2019-02-19T07:18:42.314Z,26.12
2019-02-19T07:21:11.903Z,28.23
2019-02-19T07:23:41.527Z,26.45
2019-02-19T07:26:11.131Z,26.23
2019-02-19T07:28:41.075Z,25.32
2019-02-19T07:31:11.349Z,24.12
2019-02-19T07:33:40.985Z,24.32
2019-02-19T07:36:10.549Z,26.10
2019-02-19T07:38:40.444Z,25.77
2019-02-19T07:41:10.272Z,24.40
2019-02-19T07:43:39.813Z,26.65
2019-02-19T07:46:09.741Z,25.23
2019-02-19T07:48:39.306Z,24.32
2019-02-19T07:51:08.852Z,25.17
2019-02-19T07:53:38.518Z,25.92
2019-02-19T07:56:08.102Z,27.40
2019-02-19T07:58:37.815Z,24.65
2019-02-19T08:01:07.733Z,25.17
2019-02-19T08:03:37.294Z,27.48
2019-02-19T08:06:07.393Z,23.22
2019-02-19T08:08:37.294Z,25.75
2019-02-19T08:11:07.143Z,27.07
2019-02-19T08:13:37.045Z,26.30
2019-02-19T08:16:06.887Z,27.85
2019-02-19T08:18:36.732Z,26.68
2019-02-19T08:21:06.292Z,25.97
2019-02-19T08:23:36.182Z,28.02
2019-02-19T08:26:05.790Z,28.55
2019-02-19T08:28:35.380Z,26.87
2019-02-19T08:31:05.201Z,27.70
2019-02-19T08:33:35.027Z,28.02
2019-02-19T08:36:05.198Z,27.10
2019-02-19T08:38:34.826Z,28.90
2019-02-19T08:41:04.677Z,28.65
2019-02-19T08:43:34.582Z,26.35
2019-02-19T08:46:04.747Z,25.15
2019-02-19T08:48:34.634Z,28.23
2019-02-19T08:51:04.782Z,29.70
2019-02-19T08:53:34.680Z,26.60
2019-02-19T08:56:04.515Z,27.50
2019-02-19T08:58:34.126Z,28.98
2019-02-19T09:01:03.684Z,28.00
2019-02-19T09:03:33.578Z,27.13
2019-02-19T09:06:03.144Z,29.50
2019-02-19T09:08:34.378Z,29.60
2019-02-19T09:11:04.786Z,27.98
2019-02-19T09:13:34.658Z,29.48
2019-02-19T09:16:04.239Z,27.77
2019-02-19T09:18:34.078Z,28.32
2019-02-19T09:21:03.897Z,30.23
2019-02-19T09:23:33.526Z,30.82
2019-02-19T09:26:03.345Z,28.73
2019-02-19T09:28:32.935Z,27.87
2019-02-19T09:31:02.527Z,30.35
2019-02-19T09:33:32.068Z,30.37
2019-02-19T09:36:01.947Z,29.80
2019-02-19T09:38:31.759Z,32.10
2019-02-19T09:41:01.331Z,30.68
2019-02-19T09:43:35.551Z,30.43
2019-02-19T09:46:02.123Z,32.95
2019-02-19T09:48:31.968Z,30.57
2019-02-19T09:51:01.838Z,31.48
2019-02-19T09:53:31.666Z,30.45
2019-02-19T09:56:01.765Z,27.70
2019-02-19T09:58:31.672Z,31.10
2019-02-19T10:01:01.519Z,29.45
2019-02-19T10:03:31.151Z,29.60
2019-02-19T10:06:00.685Z,27.40
2019-02-19T10:08:30.269Z,28.87
2019-02-19T10:10:59.855Z,27.60
2019-02-19T10:13:29.424Z,28.12
2019-02-19T10:15:59.059Z,26.97
2019-02-19T10:18:28.611Z,26.55
2019-02-19T10:20:59.733Z,27.98
2019-02-19T10:23:29.930Z,25.02
2019-02-19T10:25:59.506Z,22.70
2019-02-19T10:28:29.078Z,23.22
2019-02-19T10:30:59.215Z,22.75
2019-02-19T10:33:28.787Z,21.85
2019-02-19T10:35:58.690Z,24.35
2019-02-19T10:38:28.776Z,20.30
2019-02-19T10:40:58.710Z,19.35
2019-02-19T10:43:28.554Z,18.85
2019-02-19T10:45:59.864Z,18.52
2019-02-19T10:48:29.717Z,18.55
2019-02-19T10:50:59.313Z,18.57
2019-02-19T10:53:29.462Z,15.68
2019-02-19T10:55:59.124Z,19.12
2019-02-19T10:58:28.707Z,16.52
2019-02-19T11:00:58.617Z,16.93
2019-02-19T11:03:28.182Z,16.00
2019-02-19T11:05:58.190Z,15.93
2019-02-19T11:08:28.031Z,15.38
2019-02-19T11:10:58.925Z,15.35
2019-02-19T11:13:29.076Z,14.40
2019-02-19T11:15:59.174Z,13.85
2019-02-19T11:18:29.080Z,14.20
2019-02-19T11:20:58.667Z,14.13
2019-02-19T11:23:28.227Z,14.80
2019-02-19T11:25:57.822Z,14.53
2019-02-19T11:28:27.387Z,14.87
2019-02-19T11:30:57.185Z,14.10
2019-02-19T11:33:26.788Z,12.43
2019-02-19T11:35:56.662Z,12.53
2019-02-19T11:38:26.506Z,15.58
2019-02-19T11:40:56.320Z,14.00
2019-02-19T11:43:25.930Z,12.70
2019-02-19T11:45:55.511Z,13.00
2019-02-19T11:48:25.106Z,13.65
2019-02-19T11:50:54.748Z,12.98
2019-02-19T11:53:24.636Z,13.98
2019-02-19T11:55:54.208Z,12.33
2019-02-19T11:58:23.774Z,13.25
2019-02-19T12:00:53.383Z,13.80
2019-02-19T12:03:23.246Z,14.90
2019-02-19T12:05:52.883Z,14.20
2019-02-19T12:08:22.680Z,13.35
2019-02-19T12:10:52.278Z,14.63
2019-02-19T12:13:21.874Z,14.05
2019-02-19T12:15:51.412Z,12.75
2019-02-19T12:18:21.280Z,14.70
2019-02-19T12:20:50.914Z,12.68
2019-02-19T12:23:20.745Z,12.75
2019-02-19T12:25:50.831Z,12.95
2019-02-19T12:28:20.649Z,12.50
2019-02-19T12:30:50.295Z,12.15
2019-02-19T12:33:19.892Z,11.50
2019-02-19T12:35:49.721Z,12.23
2019-02-19T12:38:19.341Z,14.03
2019-02-19T12:40:48.914Z,12.33
2019-02-19T12:43:18.964Z,13.05
2019-02-19T12:45:48.843Z,12.68
2019-02-19T12:48:18.446Z,11.80
2019-02-19T12:50:48.012Z,12.20
2019-02-19T12:53:17.586Z,12.55
2019-02-19T12:55:47.396Z,13.48
2019-02-19T12:58:17.288Z,12.23
2019-02-19T13:00:46.870Z,11.73
2019-02-19T13:03:16.458Z,11.60
2019-02-19T13:05:46.055Z,11.50
2019-02-19T13:08:15.638Z,12.53
2019-02-19T13:10:45.198Z,12.43
2019-02-19T13:13:15.010Z,11.00
2019-02-19T13:15:44.864Z,12.40
2019-02-19T13:18:14.428Z,11.30
2019-02-19T13:20:44.260Z,11.22
2019-02-19T13:23:14.389Z,10.72
2019-02-19T13:25:43.953Z,10.68
2019-02-19T13:28:13.586Z,10.53
2019-02-19T13:30:43.238Z,10.95
2019-02-19T13:33:13.145Z,11.33
2019-02-19T13:35:43.029Z,11.70
2019-02-19T13:38:12.726Z,10.13
2019-02-19T13:40:42.308Z,11.50
2019-02-19T13:43:12.435Z,11.50
2019-02-19T13:45:42.237Z,12.03
2019-02-19T13:48:11.862Z,10.98
2019-02-19T13:50:41.964Z,10.48
2019-02-19T13:53:16.778Z,11.43
2019-02-19T13:55:52.055Z,12.82
2019-02-19T13:58:21.740Z,11.65
2019-02-19T14:00:51.332Z,12.63
2019-02-19T14:03:21.174Z,11.60
2019-02-19T14:05:51.354Z,11.68
2019-02-19T14:08:21.226Z,11.88
2019-02-19T14:10:50.870Z,12.95
2019-02-19T14:13:20.450Z,11.88
2019-02-19T14:16:12.886Z,12.15
2019-02-19T14:18:51.389Z,12.35
2019-02-19T14:21:30.800Z,12.93
2019-02-19T14:24:25.297Z,11.22
2019-02-19T14:27:16.586Z,11.93
2019-02-19T14:30:04.547Z,12.88
2019-02-19T14:32:53.375Z,12.55
2019-02-19T14:35:59.724Z,13.35
2019-02-19T14:38:51.183Z,12.00
2019-02-19T14:41:40.192Z,11.97
2019-02-19T14:44:31.773Z,11.05
2019-02-19T14:47:19.623Z,10.63
2019-02-19T14:50:09.778Z,11.88
2019-02-19T14:52:58.336Z,11.00
2019-02-19T14:55:44.491Z,11.35
2019-02-19T14:58:32.967Z,11.73
2019-02-19T15:01:36.452Z,11.38
2019-02-19T15:04:22.872Z,10.45
2019-02-19T15:07:10.040Z,10.78
2019-02-19T15:10:01.384Z,10.75
2019-02-19T15:12:46.243Z,9.30
2019-02-19T15:15:34.717Z,10.53
2019-02-19T15:18:29.511Z,10.00
2019-02-19T15:21:16.864Z,10.23
2019-02-19T15:24:04.608Z,10.55
2019-02-19T15:26:52.071Z,9.65
2019-02-19T15:29:49.480Z,10.53
2019-02-19T15:32:36.647Z,10.95
2019-02-19T15:35:16.056Z,8.35
2019-02-19T15:38:07.452Z,10.70
2019-02-19T15:40:47.172Z,10.20
2019-02-19T15:43:47.836Z,10.08
2019-02-19T15:46:36.386Z,10.53
2019-02-19T15:49:25.143Z,10.13
2019-02-19T15:52:12.360Z,10.05
2019-02-19T15:55:06.962Z,11.25
2019-02-19T15:58:05.047Z,10.70
2019-02-19T16:00:43.088Z,9.75
2019-02-19T16:03:29.953Z,10.40
2019-02-19T16:06:23.627Z,10.32
2019-02-19T16:09:18.124Z,11.95
2019-02-19T16:12:02.510Z,10.80
2019-02-19T16:15:00.344Z,10.70
2019-02-19T16:17:57.619Z,9.95
2019-02-19T16:20:33.230Z,10.93
2019-02-19T16:23:10.908Z,9.65
2019-02-19T16:26:04.456Z,11.08
2019-02-19T16:28:39.788Z,11.63
2019-02-19T16:31:19.438Z,10.95
2019-02-19T16:34:06.746Z,10.32
2019-02-19T16:36:44.711Z,10.15
2019-02-19T16:39:48.493Z,9.63
2019-02-19T16:42:48.907Z,10.80
2019-02-19T16:45:32.462Z,10.03
2019-02-19T16:48:27.011Z,9.48
2019-02-19T16:51:12.315Z,11.55
2019-02-19T16:54:03.776Z,9.75
2019-02-19T16:56:45.641Z,9.83
2019-02-19T16:59:21.312Z,10.95
2019-02-19T17:01:58.325Z,9.70
2019-02-19T17:04:44.093Z,10.78
2019-02-19T17:07:23.032Z,10.40
2019-02-19T17:10:17.293Z,10.28
2019-02-19T17:13:04.501Z,10.13
2019-02-19T17:15:59.200Z,10.30
2019-02-19T17:18:47.696Z,10.45
2019-02-19T17:21:27.981Z,10.30
2019-02-19T17:24:34.445Z,10.00
2019-02-19T17:27:34.875Z,10.30
2019-02-19T17:30:23.688Z,9.38
2019-02-19T17:33:05.576Z,9.15
2019-02-19T17:35:56.631Z,9.23
2019-02-19T17:38:34.701Z,10.05
2019-02-19T17:41:13.398Z,10.93
2019-02-19T17:43:58.334Z,9.25
2019-02-19T17:46:47.196Z,8.30
2019-02-19T17:49:34.189Z,8.43
2019-02-19T17:52:24.439Z,8.80
2019-02-19T17:55:01.510Z,8.23
2019-02-19T17:57:43.978Z,8.03
2019-02-19T18:00:44.455Z,8.65
2019-02-19T18:03:45.440Z,8.80
2019-02-19T18:06:36.010Z,8.93
2019-02-19T18:09:36.869Z,9.95
2019-02-19T18:12:20.091Z,8.45
2019-02-19T18:15:07.382Z,8.28
2019-02-19T18:18:05.161Z,8.70
2019-02-19T18:20:34.997Z,8.73
2019-02-19T18:23:04.531Z,7.97
2019-02-19T18:25:34.528Z,8.78
2019-02-19T18:28:04.643Z,9.00
2019-02-19T18:30:34.272Z,8.70
2019-02-19T18:33:03.892Z,8.73
2019-02-19T18:35:33.728Z,7.80
2019-02-19T18:38:03.376Z,9.33
2019-02-19T18:40:33.246Z,9.28
2019-02-19T18:43:02.849Z,9.68
2019-02-19T18:45:32.498Z,8.55
2019-02-19T18:48:02.078Z,9.20
2019-02-19T18:50:31.681Z,8.95
2019-02-19T18:53:01.517Z,8.93
2019-02-19T18:55:31.102Z,8.95
2019-02-19T18:58:01.174Z,8.48
2019-02-19T19:00:30.801Z,10.13
2019-02-19T19:03:00.341Z,8.88
2019-02-19T19:05:30.211Z,10.28
2019-02-19T19:08:00.658Z,8.65
2019-02-19T19:10:30.226Z,8.23
2019-02-19T19:12:59.812Z,9.15
2019-02-19T19:15:29.635Z,8.58
2019-02-19T19:17:59.300Z,9.30
2019-02-19T19:20:29.422Z,9.13
2019-02-19T19:22:59.269Z,8.48
2019-02-19T19:25:28.847Z,8.23
2019-02-19T19:27:58.475Z,8.85
2019-02-19T19:30:28.295Z,9.15
2019-02-19T19:32:57.868Z,9.98
2019-02-19T19:35:27.607Z,9.20
2019-02-19T19:37:57.164Z,8.90
2019-02-19T19:40:27.050Z,9.15
2019-02-19T19:42:56.621Z,9.70
2019-02-19T19:45:26.510Z,10.20
2019-02-19T19:47:56.092Z,10.38
2019-02-19T19:50:25.691Z,9.80
2019-02-19T19:52:55.240Z,10.15
2019-02-19T19:55:24.832Z,10.45
2019-02-19T19:57:54.635Z,10.70
2019-02-19T20:00:24.212Z,9.05
2019-02-19T20:02:54.046Z,10.30
2019-02-19T20:05:23.716Z,10.75
2019-02-19T20:07:53.640Z,11.53
2019-02-19T20:10:23.178Z,12.73
2019-02-19T20:12:52.763Z,10.82
2019-02-19T20:15:22.859Z,10.10
2019-02-19T20:17:52.524Z,10.85
2019-02-19T20:20:22.331Z,11.22
2019-02-19T20:22:51.892Z,10.70
2019-02-19T20:25:21.503Z,10.95
2019-02-19T20:27:51.100Z,11.80
2019-02-19T20:30:21.141Z,11.05
2019-02-19T20:32:50.817Z,12.18
2019-02-19T20:35:20.645Z,11.60
2019-02-19T20:37:54.043Z,10.13
2019-02-19T20:40:21.447Z,10.05
2019-02-19T20:42:51.284Z,11.80
2019-02-19T20:45:20.860Z,10.23
2019-02-19T20:47:50.493Z,10.85
2019-02-19T20:50:20.081Z,11.50
2019-02-19T20:52:50.179Z,11.50
2019-02-19T20:55:20.468Z,11.95
2019-02-19T20:57:50.127Z,11.53
2019-02-19T21:00:19.708Z,11.48
2019-02-19T21:02:49.316Z,12.45
2019-02-19T21:05:18.893Z,10.90
2019-02-19T21:07:48.514Z,12.13
2019-02-19T21:10:18.130Z,11.53
2019-02-19T21:12:47.755Z,11.03
2019-02-19T21:15:17.588Z,10.35
2019-02-19T21:17:47.464Z,9.95
2019-02-19T21:20:17.097Z,10.95
2019-02-19T21:22:46.655Z,9.70
2019-02-19T21:25:16.235Z,10.13
2019-02-19T21:27:45.850Z,11.05
2019-02-19T21:30:15.682Z,10.25
2019-02-19T21:32:45.295Z,9.85
2019-02-19T21:35:15.124Z,9.80
2019-02-19T21:37:44.687Z,9.73
2019-02-19T21:40:14.318Z,9.15
2019-02-19T21:42:43.887Z,8.68
2019-02-19T21:45:13.458Z,8.95
2019-02-19T21:47:43.172Z,8.60
2019-02-19T21:50:12.881Z,7.83
2019-02-19T21:52:42.737Z,8.93
2019-02-19T21:55:12.349Z,7.80
2019-02-19T21:57:41.932Z,7.65
2019-02-19T22:00:13.477Z,8.03
2019-02-19T22:02:43.344Z,9.10
2019-02-19T22:05:13.169Z,10.93
2019-02-19T22:07:42.721Z,10.88
2019-02-19T22:10:12.420Z,10.10
2019-02-19T22:12:42.248Z,10.10
2019-02-19T22:15:12.248Z,10.35
2019-02-19T22:17:42.287Z,11.03
2019-02-19T22:20:25.820Z,11.30
2019-02-19T22:22:55.479Z,10.80
2019-02-19T22:25:25.328Z,12.00
2019-02-19T22:27:54.971Z,11.15
2019-02-19T22:30:24.532Z,11.68
2019-02-19T22:32:54.142Z,12.00
2019-02-19T22:35:23.687Z,11.70
2019-02-19T22:37:53.280Z,13.38
2019-02-19T22:40:22.871Z,11.78
2019-02-19T22:42:52.486Z,12.60
2019-02-19T22:45:22.057Z,12.00
2019-02-19T22:47:53.615Z,11.65
2019-02-19T22:50:23.333Z,11.88
2019-02-19T22:52:52.912Z,11.20
2019-02-19T22:55:28.722Z,10.85
2019-02-19T22:57:58.830Z,11.00
2019-02-19T23:00:48.941Z,10.98
2019-02-19T23:03:19.914Z,12.65
2019-02-19T23:05:49.496Z,11.03
2019-02-19T23:08:19.103Z,12.78
2019-02-19T23:10:48.935Z,11.85
2019-02-19T23:13:19.041Z,10.72
2019-02-19T23:15:48.638Z,11.57
2019-02-19T23:18:18.236Z,10.88
2019-02-19T23:20:48.099Z,12.50
2019-02-19T23:23:17.690Z,11.90
2019-02-19T23:25:47.256Z,11.05
2019-02-19T23:28:16.899Z,11.57
2019-02-19T23:30:46.451Z,12.70
2019-02-19T23:33:16.064Z,10.72
2019-02-19T23:35:49.903Z,11.60
2019-02-19T23:38:19.503Z,13.25
2019-02-19T23:40:49.028Z,12.30
2019-02-19T23:43:18.652Z,10.18
2019-02-19T23:45:48.218Z,11.45
2019-02-19T23:48:17.836Z,10.03
2019-02-19T23:50:47.431Z,11.10
2019-02-19T23:53:16.996Z,9.63
2019-02-19T23:55:46.870Z,9.60
2019-02-19T23:58:16.703Z,9.95
